Time;durP1;ratioP1;P1;durP2;ratioP2;P2;SDS_P1;SDS_P2;PMS_P1;PMS_P2;Temp;Humidity;BMP_temperature;BMP_pressure;BME280_temperature;BME280_humidity;BME280_pressure;Samples;Min_cycle;Max_cycle;Signal;HPM_P1;HPM_P2
2022/01/23 00:01:47;;;;;;;19.15;3.72;;;;;;;25.03;29.15;95477.63;5026307;28;20115;-53
2022/01/23 00:04:14;;;;;;;12.35;3.20;;;;;;;25.00;29.12;95478.13;5007656;28;20048;-52
2022/01/23 00:06:40;;;;;;;16.70;3.90;;;;;;;25.01;28.89;95477.09;4992028;28;20152;-51
2022/01/23 00:09:07;;;;;;;15.18;3.63;;;;;;;24.98;28.96;95473.09;5007646;28;20033;-51
2022/01/23 00:11:40;;;;;;;16.65;3.60;;;;;;;24.96;28.83;95470.69;5015741;28;20060;-50
2022/01/23 00:19:27;;;;;;;16.88;3.65;;;;;;;24.97;28.72;95469.63;4999596;28;20041;-53
2022/01/23 00:21:57;;;;;;;20.33;3.90;;;;;;;24.96;28.53;95464.59;5011840;28;20040;-54
2022/01/23 00:32:34;;;;;;;21.92;4.30;;;;;;;24.95;28.50;95455.78;5004416;28;20073;-50
2022/01/23 00:35:06;;;;;;;21.60;3.72;;;;;;;24.88;28.29;95451.78;5007833;28;20025;-53
2022/01/23 00:37:36;;;;;;;20.35;3.83;;;;;;;24.91;28.49;95452.03;5001073;28;20042;-50
2022/01/23 00:40:07;;;;;;;22.67;4.00;;;;;;;24.90;28.76;95444.31;5007706;28;20036;-49
2022/01/23 00:42:34;;;;;;;20.10;3.63;;;;;;;24.93;28.58;95447.25;5048640;28;20083;-52
2022/01/23 00:45:47;;;;;;;18.73;3.88;;;;;;;24.90;28.47;95444.31;5009301;28;20038;-52
2022/01/23 00:47:54;;;;;;;21.67;3.80;;;;;;;24.94;28.05;95440.88;4996221;28;20037;-52
2022/01/23 00:50:26;;;;;;;17.95;3.38;;;;;;;24.92;28.65;95445.69;4992001;28;20069;-51
2022/01/23 00:52:52;;;;;;;18.25;3.67;;;;;;;24.92;28.32;95448.34;5009816;28;20030;-54
2022/01/23 00:55:17;;;;;;;22.55;3.80;;;;;;;24.96;28.13;95443.28;5008598;28;20037;-50
2022/01/23 00:57:42;;;;;;;19.15;3.80;;;;;;;24.93;28.07;95446.47;5018434;28;20132;-51
2022/01/23 01:00:10;;;;;;;24.08;4.07;;;;;;;24.90;28.34;95445.16;5010587;28;20041;-52
2022/01/23 01:02:36;;;;;;;23.27;4.03;;;;;;;24.93;28.42;95451.78;5004552;28;20045;-49
2022/01/23 01:05:03;;;;;;;20.02;3.60;;;;;;;24.89;28.19;95451.50;5006707;28;20117;-47
2022/01/23 01:07:37;;;;;;;26.17;4.65;;;;;;;24.89;28.10;95456.03;5007970;28;20037;-52
2022/01/23 01:10:08;;;;;;;21.88;4.20;;;;;;;24.91;28.10;95451.25;4999175;28;20057;-49
2022/01/23 01:12:43;;;;;;;23.55;3.90;;;;;;;24.91;28.12;95451.25;5007961;28;20022;-52
2022/01/23 01:32:01;;;;;;;27.30;4.07;;;;;;;24.90;28.12;95449.66;4981041;28;20044;-54
2022/01/23 01:34:37;;;;;;;23.20;4.35;;;;;;;24.84;27.96;95446.16;4985445;28;20116;-54
2022/01/23 01:37:04;;;;;;;27.10;3.97;;;;;;;24.87;28.02;95443.00;4982719;28;20132;-49
2022/01/23 01:39:38;;;;;;;25.77;4.10;;;;;;;24.87;27.96;95445.66;4979097;28;20034;-52
2022/01/23 01:42:04;;;;;;;21.25;3.65;;;;;;;24.88;28.00;95446.44;4982605;28;20042;-50
2022/01/23 01:44:30;;;;;;;27.10;4.25;;;;;;;24.88;27.72;95441.91;4984580;28;20042;-49
2022/01/23 01:46:58;;;;;;;28.95;5.80;;;;;;;24.87;28.14;95450.19;4955213;28;20131;-49
2022/01/23 01:49:30;;;;;;;21.33;3.40;;;;;;;24.89;27.91;95459.50;4982450;28;20034;-54
2022/01/23 01:51:57;;;;;;;20.95;3.78;;;;;;;24.88;28.05;95462.41;4984992;28;20097;-50
2022/01/23 01:54:33;;;;;;;25.27;3.80;;;;;;;24.87;28.14;95461.63;4984782;28;20066;-54
2022/01/23 01:57:11;;;;;;;23.25;4.05;;;;;;;24.84;27.47;95451.50;4974081;28;20132;-50
2022/01/23 02:10:04;;;;;;;25.77;3.85;;;;;;;24.83;27.89;95444.59;5015023;28;20045;-50
2022/01/23 02:22:31;;;;;;;22.02;4.13;;;;;;;24.89;27.81;95443.53;4988195;28;20056;-51
2022/01/23 02:52:19;;;;;;;20.17;3.83;;;;;;;24.83;27.58;95433.94;4878595;29;20046;-51
2022/01/23 02:57:11;;;;;;;20.25;3.47;;;;;;;24.83;27.72;95422.47;4906635;29;20040;-52
2022/01/23 02:59:37;;;;;;;18.58;3.85;;;;;;;24.80;27.23;95429.13;4896328;29;20104;-49
2022/01/23 03:04:53;;;;;;;19.08;3.53;;;;;;;24.84;27.43;95430.22;4904993;29;20094;-53
2022/01/23 03:10:23;;;;;;;17.20;3.33;;;;;;;24.81;27.59;95443.22;4887439;29;20079;-51
2022/01/23 03:26:30;;;;;;;15.48;3.45;;;;;;;24.81;27.43;95438.72;5003372;28;20108;-50
2022/01/23 03:34:13;;;;;;;20.20;3.90;;;;;;;24.82;27.65;95436.88;5009518;28;20036;-50
2022/01/23 03:36:44;;;;;;;18.83;3.20;;;;;;;24.78;27.65;95442.69;5014075;28;20025;-51
2022/01/23 03:39:10;;;;;;;16.90;3.40;;;;;;;24.82;27.18;95452.81;5009781;28;20038;-49
2022/01/23 03:41:41;;;;;;;12.60;2.83;;;;;;;24.80;27.37;95457.59;5041676;28;20104;-50
2022/01/23 03:44:10;;;;;;;14.18;3.33;;;;;;;24.81;27.25;95457.34;4998827;28;20037;-52
2022/01/23 03:49:32;;;;;;;12.85;3.28;;;;;;;24.79;27.08;95454.16;5008777;28;20104;-51
2022/01/23 03:52:06;;;;;;;15.25;2.95;;;;;;;24.78;27.52;95450.69;5007931;28;20052;-49
2022/01/23 03:54:32;;;;;;;17.98;3.97;;;;;;;24.78;27.69;95450.69;5004329;28;20099;-52
2022/01/23 03:56:58;;;;;;;11.30;3.50;;;;;;;24.79;27.34;95459.47;5010251;28;20033;-50
2022/01/23 03:59:27;;;;;;;17.13;3.38;;;;;;;24.78;27.24;95458.66;5014690;28;20108;-51
2022/01/23 04:01:52;;;;;;;11.35;3.33;;;;;;;24.79;27.03;95462.13;4977874;28;20120;-52
2022/01/23 04:06:53;;;;;;;15.32;3.08;;;;;;;24.80;27.25;95463.72;5008479;28;20037;-53
2022/01/23 04:09:21;;;;;;;10.70;3.03;;;;;;;24.82;26.91;95469.56;4976290;28;20029;-51
2022/01/23 04:11:50;;;;;;;14.40;2.72;;;;;;;24.83;27.01;95471.19;5009870;28;20037;-48
2022/01/23 04:14:19;;;;;;;12.82;3.08;;;;;;;24.82;26.83;95466.13;5008078;28;20061;-51
2022/01/23 05:00:19;;;;;;;8.00;2.70;;;;;;;24.78;26.97;95453.34;5006731;28;20053;-54
2022/01/23 05:06:00;;;;;;;8.45;2.63;;;;;;;24.78;26.84;95447.22;5002935;28;20038;-49
2022/01/23 05:08:27;;;;;;;10.38;2.70;;;;;;;24.78;26.63;95452.53;4967420;28;20038;-49
2022/01/23 05:11:12;;;;;;;7.07;2.78;;;;;;;24.81;26.64;95454.69;4966076;28;20043;-51
2022/01/23 05:13:40;;;;;;;7.40;2.80;;;;;;;24.83;26.69;95444.59;4941813;28;20055;-51
2022/01/23 05:16:06;;;;;;;6.05;2.72;;;;;;;24.87;26.35;95455.50;4949402;28;20051;-51
2022/01/23 05:18:35;;;;;;;6.05;2.30;;;;;;;24.88;26.26;95449.91;4965447;28;20038;-52
2022/01/23 05:21:17;;;;;;;7.57;2.67;;;;;;;24.88;26.24;95455.22;4917986;28;20149;-50
2022/01/23 05:23:45;;;;;;;7.28;2.53;;;;;;;24.84;26.35;95456.03;4965572;28;20077;-51
2022/01/23 05:26:13;;;;;;;6.75;2.60;;;;;;;24.85;26.47;95463.75;4962266;28;20043;-52
2022/01/23 05:28:39;;;;;;;9.68;2.83;;;;;;;24.85;26.39;95469.06;4955670;28;20070;-52
2022/01/23 05:31:06;;;;;;;5.13;2.67;;;;;;;24.85;26.55;95470.94;4949046;28;20047;-51
2022/01/23 05:33:33;;;;;;;6.40;2.38;;;;;;;24.82;26.64;95471.44;4959090;28;20038;-51
2022/01/23 05:35:58;;;;;;;6.05;2.60;;;;;;;24.86;26.38;95483.94;4955912;28;20073;-52
2022/01/23 05:38:27;;;;;;;7.63;2.67;;;;;;;24.83;26.29;95475.69;4974516;28;20197;-51
2022/01/23 05:40:57;;;;;;;7.75;2.50;;;;;;;24.79;26.57;95475.44;4984352;28;20057;-48
2022/01/23 05:43:23;;;;;;;5.22;2.38;;;;;;;24.86;26.38;95467.19;5001904;28;20042;-49
2022/01/23 05:45:51;;;;;;;9.90;2.70;;;;;;;24.82;26.70;95466.91;5005754;28;20050;-51
2022/01/23 05:48:17;;;;;;;6.18;2.58;;;;;;;24.84;26.57;95474.66;4988945;28;20053;-52
2022/01/23 05:50:43;;;;;;;8.43;2.55;;;;;;;24.80;26.79;95477.03;5006350;28;20065;-47
2022/01/23 05:53:29;;;;;;;5.35;2.47;;;;;;;24.79;26.60;95467.47;5004780;28;20037;-50
2022/01/23 05:55:55;;;;;;;9.32;2.60;;;;;;;24.80;26.67;95478.88;4965170;28;20129;-52
2022/01/23 05:58:20;;;;;;;13.48;2.40;;;;;;;24.78;26.65;95477.28;4964527;28;20052;-51
2022/01/23 06:00:46;;;;;;;8.32;2.75;;;;;;;24.80;26.79;95482.34;4964433;28;20050;-51
2022/01/23 06:03:11;;;;;;;7.32;2.42;;;;;;;24.78;26.80;95497.75;4946946;28;20035;-50
2022/01/23 06:05:39;;;;;;;6.70;2.22;;;;;;;24.81;26.88;95499.91;4948562;28;20114;-51
2022/01/23 06:08:16;;;;;;;7.15;2.30;;;;;;;24.78;26.80;95506.53;4964608;28;20054;-50
2022/01/23 06:10:54;;;;;;;6.57;2.47;;;;;;;24.80;26.77;95502.84;4963363;28;20098;-50
2022/01/23 06:13:25;;;;;;;6.55;2.70;;;;;;;24.75;26.56;95495.63;4961326;28;20046;-51
2022/01/23 06:15:51;;;;;;;5.07;2.40;;;;;;;24.81;26.85;95502.56;4949331;28;20093;-52
2022/01/23 06:18:19;;;;;;;7.28;2.17;;;;;;;24.80;26.77;95500.97;4971490;28;20042;-50
2022/01/23 06:20:53;;;;;;;5.15;2.40;;;;;;;24.80;26.85;95506.28;4967298;28;20054;-52
2022/01/23 06:23:20;;;;;;;7.05;2.35;;;;;;;24.77;27.01;95518.25;4962860;28;20043;-50
2022/01/23 06:25:48;;;;;;;8.98;2.70;;;;;;;24.80;26.96;95524.91;4960522;28;20051;-50
2022/01/23 06:28:19;;;;;;;6.90;2.35;;;;;;;24.80;26.96;95529.44;4981988;28;20049;-50
2022/01/23 06:30:46;;;;;;;7.70;2.40;;;;;;;24.81;27.08;95526.53;4954033;28;20059;-55
2022/01/23 06:33:11;;;;;;;5.63;2.10;;;;;;;24.78;27.24;95521.72;4994446;28;20056;-52
2022/01/23 06:35:37;;;;;;;5.85;2.30;;;;;;;24.76;27.39;95524.63;5005893;28;20033;-52
2022/01/23 06:38:22;;;;;;;4.05;2.00;;;;;;;24.87;27.21;95516.69;5004527;28;20261;-52
2022/01/23 06:40:50;;;;;;;6.05;2.20;;;;;;;24.80;27.19;95518.78;5006181;28;20062;-49
2022/01/23 06:43:17;;;;;;;7.55;2.38;;;;;;;24.83;27.41;95515.59;4996130;28;20045;-48
2022/01/23 06:45:42;;;;;;;5.85;2.15;;;;;;;24.82;28.70;95506.81;4995254;28;20056;-52
2022/01/23 06:48:10;;;;;;;7.55;2.22;;;;;;;24.85;27.70;95489.56;5008856;28;20070;-49
2022/01/23 06:50:44;;;;;;;7.78;2.22;;;;;;;24.85;27.93;95493.00;5015322;28;20120;-52
2022/01/23 06:53:09;;;;;;;5.90;2.15;;;;;;;24.88;27.63;95489.03;4999489;28;20045;-51
2022/01/23 06:55:38;;;;;;;7.00;2.30;;;;;;;24.89;27.81;95490.63;5014112;28;20029;-50
2022/01/23 06:58:03;;;;;;;6.00;2.17;;;;;;;24.93;27.35;95491.69;4999046;28;20132;-53
2022/01/23 07:00:29;;;;;;;7.30;2.30;;;;;;;24.88;27.26;95502.31;4970051;28;20046;-51
2022/01/23 07:02:54;;;;;;;3.97;2.20;;;;;;;24.87;27.57;95498.06;4994263;28;20105;-53
2022/01/23 07:05:22;;;;;;;9.63;2.00;;;;;;;24.90;27.16;95509.00;5007251;28;20030;-53
2022/01/23 07:07:52;;;;;;;6.97;2.30;;;;;;;24.90;27.39;95514.31;4989093;28;20030;-49
2022/01/23 07:10:19;;;;;;;;;;;;;;;25.40;26.96;95520.06;4995597;28;20045;-51
2022/01/23 07:12:45;;;;;;;5.47;1.95;;;;;;;25.00;27.13;95518.06;5013840;28;19920;-50
2022/01/23 07:15:11;;;;;;;4.68;1.92;;;;;;;24.94;27.25;95515.41;4997569;28;20060;-49
2022/01/23 07:17:42;;;;;;;4.20;2.10;;;;;;;24.90;27.56;95505.53;5020591;28;20077;-53
2022/01/23 07:20:09;;;;;;;5.55;1.90;;;;;;;24.90;27.54;95524.97;5023007;28;20044;-49
2022/01/23 07:22:37;;;;;;;4.22;2.22;;;;;;;24.90;27.51;95524.97;5000538;28;20037;-48
2022/01/23 07:25:21;;;;;;;6.38;2.00;;;;;;;24.91;27.72;95525.75;4962176;28;20038;-51
2022/01/23 07:27:51;;;;;;;5.63;2.15;;;;;;;24.91;27.55;95526.56;4966300;28;20116;-50
2022/01/23 07:30:30;;;;;;;5.25;2.42;;;;;;;24.93;27.66;95528.97;4950255;28;20117;-49
2022/01/23 07:32:58;;;;;;;5.93;2.05;;;;;;;24.91;27.86;95534.53;4978938;28;20046;-50
2022/01/23 07:35:42;;;;;;;7.40;2.10;;;;;;;24.94;27.74;95531.34;4899079;29;20175;-51
2022/01/23 07:38:09;;;;;;;7.20;2.25;;;;;;;24.92;27.60;95522.84;4893608;29;20113;-53
2022/01/23 07:40:38;;;;;;;6.53;2.00;;;;;;;24.94;27.98;95519.91;4890611;29;20059;-53
2022/01/23 07:43:04;;;;;;;6.33;2.20;;;;;;;25.00;27.83;95528.69;4892195;29;20137;-50
2022/01/23 07:45:35;;;;;;;7.82;2.75;;;;;;;24.91;27.63;95529.22;4884287;29;20043;-51
2022/01/23 07:48:21;;;;;;;5.15;2.20;;;;;;;24.92;27.59;95525.50;4830642;29;20050;-51
2022/01/23 07:50:46;;;;;;;11.65;2.78;;;;;;;24.93;27.70;95520.97;4834779;29;20054;-51
2022/01/23 07:53:12;;;;;;;10.23;3.00;;;;;;;24.93;27.55;95526.28;4827917;29;20092;-47
2022/01/23 07:55:37;;;;;;;16.27;3.83;;;;;;;24.93;27.54;95529.75;4811174;29;20049;-48
2022/01/23 07:58:10;;;;;;;14.13;3.63;;;;;;;24.94;27.33;95515.41;4855763;29;20049;-51
2022/01/23 08:00:50;;;;;;;8.70;3.42;;;;;;;24.96;27.10;95526.56;4865125;29;20049;-52
2022/01/23 08:03:16;;;;;;;10.02;3.00;;;;;;;24.94;26.98;95534.03;4865883;29;20152;-47
2022/01/23 08:05:44;;;;;;;6.72;2.78;;;;;;;24.93;27.18;95540.38;4844730;29;20055;-50
2022/01/23 08:08:10;;;;;;;8.35;3.03;;;;;;;24.95;26.96;95537.47;4923554;29;20149;-51
2022/01/23 08:10:35;;;;;;;9.00;2.65;;;;;;;24.92;27.14;95543.31;4913456;29;20051;-47
2022/01/23 08:13:03;;;;;;;15.15;3.20;;;;;;;24.88;27.00;95547.56;4918724;28;20051;-50
2022/01/23 08:15:34;;;;;;;7.97;2.83;;;;;;;24.85;27.58;95559.53;4937267;28;20086;-51
2022/01/23 08:18:06;;;;;;;7.30;3.10;;;;;;;24.85;27.58;95556.84;4944298;28;20035;-52
2022/01/23 08:20:33;;;;;;;12.55;2.80;;;;;;;24.85;27.67;95559.53;5004335;28;20060;-49
2022/01/23 08:23:01;;;;;;;8.68;3.08;;;;;;;24.88;27.40;95553.66;5037845;28;20045;-50
2022/01/23 08:25:35;;;;;;;11.38;2.50;;;;;;;24.87;27.66;95557.41;5004912;28;20155;-49
2022/01/23 08:28:01;;;;;;;6.80;2.40;;;;;;;24.89;27.45;95562.47;5020734;28;20111;-51
2022/01/23 08:30:28;;;;;;;12.00;2.60;;;;;;;24.88;27.70;95561.66;5005875;28;20041;-51
2022/01/23 08:32:54;;;;;;;10.00;2.50;;;;;;;24.94;27.74;95551.81;5020188;28;20116;-49
2022/01/23 08:35:20;;;;;;;4.68;2.35;;;;;;;24.93;27.70;95556.34;5005040;28;20042;-50
2022/01/23 08:37:48;;;;;;;8.80;2.90;;;;;;;24.90;28.00;95564.06;4986908;28;20036;-50
2022/01/23 08:40:23;;;;;;;7.90;2.35;;;;;;;24.97;27.78;95553.97;5004560;28;20030;-52
2022/01/23 08:42:51;;;;;;;12.20;2.70;;;;;;;24.95;27.98;95554.22;5003027;28;20077;-49
2022/01/23 08:45:26;;;;;;;8.30;2.80;;;;;;;24.91;28.13;95563.78;5004831;28;20033;-50
2022/01/23 08:47:51;;;;;;;15.18;2.70;;;;;;;24.95;27.79;95559.56;4987440;28;20034;-49
2022/01/23 08:50:17;;;;;;;8.75;2.70;;;;;;;24.98;28.08;95564.38;5005667;28;20041;-50
2022/01/23 08:52:42;;;;;;;10.77;2.80;;;;;;;24.97;27.98;95562.75;4983501;28;20034;-52
2022/01/23 08:55:08;;;;;;;7.32;2.50;;;;;;;24.98;28.08;95556.38;4983120;28;20107;-51
2022/01/23 08:57:34;;;;;;;8.02;2.45;;;;;;;24.94;28.10;95559.81;4998678;28;20038;-50
2022/01/23 09:00:01;;;;;;;8.63;3.22;;;;;;;24.96;28.26;95566.50;5013881;28;20155;-49
2022/01/23 09:02:28;;;;;;;10.13;3.10;;;;;;;24.96;28.29;95571.81;5011085;28;20038;-50
2022/01/23 09:05:00;;;;;;;9.70;3.15;;;;;;;24.94;28.35;95567.78;5012554;28;20048;-49
2022/01/23 09:07:25;;;;;;;10.32;3.03;;;;;;;25.02;28.19;95564.66;5014567;28;20040;-51
2022/01/23 09:10:01;;;;;;;7.00;2.67;;;;;;;25.01;28.05;95557.72;4997344;28;20030;-50
2022/01/23 09:14:52;;;;;;;10.50;2.85;;;;;;;25.00;28.25;95564.13;4980827;28;20035;-52
2022/01/23 09:17:19;;;;;;;8.35;2.53;;;;;;;25.04;28.27;95561.72;4988892;28;20069;-51
2022/01/23 09:19:47;;;;;;;10.10;2.85;;;;;;;25.03;28.59;95558.25;4986136;28;20045;-50
2022/01/23 09:22:24;;;;;;;7.25;2.45;;;;;;;25.03;28.34;95555.59;4987502;28;20042;-48
2022/01/23 09:24:52;;;;;;;10.57;3.40;;;;;;;25.11;28.56;95562.28;4984031;28;20034;-51
2022/01/23 09:27:23;;;;;;;7.13;2.80;;;;;;;25.05;28.42;95552.69;4976739;28;20141;-51
2022/01/23 09:29:51;;;;;;;6.82;2.53;;;;;;;25.04;28.59;95551.88;4980838;28;20169;-51
2022/01/23 09:32:17;;;;;;;12.60;2.78;;;;;;;25.03;28.67;95557.47;4973524;28;20039;-51
2022/01/23 09:34:48;;;;;;;10.45;2.80;;;;;;;25.05;28.65;95560.66;4963644;28;20042;-50
2022/01/23 09:37:15;;;;;;;11.50;2.95;;;;;;;25.04;28.69;95562.53;5000528;28;20030;-51
2022/01/23 09:39:45;;;;;;;7.88;2.78;;;;;;;25.05;28.74;95550.00;4968739;28;20046;-51
2022/01/23 09:42:55;;;;;;;7.77;2.67;;;;;;;25.12;28.80;95548.72;4986456;28;20084;-49
2022/01/23 09:45:24;;;;;;;;;;;;;;;25.66;28.03;95555.50;4994402;28;20067;-51
2022/01/23 09:47:51;;;;;;;9.30;2.70;;;;;;;25.23;28.97;95554.91;5010884;28;19921;-49
2022/01/23 09:50:16;;;;;;;9.13;2.80;;;;;;;25.11;28.81;95552.44;5010452;28;20041;-50
2022/01/23 09:52:53;;;;;;;10.18;2.95;;;;;;;25.11;28.88;95556.94;5015677;28;20080;-48
2022/01/23 09:55:19;;;;;;;9.38;2.90;;;;;;;25.07;28.80;95551.34;5012092;28;20034;-48
2022/01/23 09:57:48;;;;;;;9.23;2.67;;;;;;;25.03;28.96;95557.47;5009066;28;20045;-52
2022/01/23 10:00:19;;;;;;;6.43;2.60;;;;;;;25.07;28.89;95558.53;5005703;28;20037;-51
2022/01/23 10:02:46;;;;;;;;;;;;;;;25.54;28.60;95557.63;5017290;28;20029;-52
2022/01/23 10:05:17;;;;;;;10.00;2.80;;;;;;;25.14;29.46;95561.75;5009236;28;19925;-51
2022/01/23 10:07:45;;;;;;;11.35;3.13;;;;;;;25.10;29.68;95558.03;5023937;28;20246;-50
2022/01/23 10:10:39;;;;;;;11.23;3.22;;;;;;;25.07;29.46;95561.19;5017295;28;20045;-50
2022/01/23 10:13:07;;;;;;;9.65;2.60;;;;;;;25.07;29.74;95554.00;4999098;28;20110;-49
2022/01/23 10:15:34;;;;;;;8.50;2.33;;;;;;;25.05;29.59;95555.34;5002960;28;20076;-52
2022/01/23 10:18:02;;;;;;;13.55;2.97;;;;;;;25.03;29.54;95550.28;4987349;28;20184;-49
2022/01/23 10:20:29;;;;;;;8.30;2.70;;;;;;;25.03;29.66;95549.47;5018127;28;20147;-49
2022/01/23 10:23:02;;;;;;;9.00;2.63;;;;;;;25.05;29.82;95548.16;4991104;28;20060;-51
2022/01/23 10:25:31;;;;;;;7.53;2.47;;;;;;;25.12;29.85;95556.69;5007065;28;20081;-49
2022/01/23 10:28:06;;;;;;;18.35;2.63;;;;;;;25.12;30.19;95558.56;4987625;28;20041;-51
2022/01/23 10:30:35;;;;;;;9.57;3.03;;;;;;;25.12;30.14;95555.91;4990423;28;20083;-50
2022/01/23 10:33:03;;;;;;;9.15;2.15;;;;;;;25.13;30.08;95549.50;5007907;28;20324;-51
2022/01/23 10:36:03;;;;;;;13.18;3.15;;;;;;;25.25;30.71;95546.66;5008051;28;20064;-51
2022/01/23 10:38:41;;;;;;;6.63;2.03;;;;;;;25.21;30.67;95545.53;5013310;28;20053;-49
2022/01/23 10:49:50;;;;;;;17.80;5.55;;;;;;;25.13;31.94;95529.03;4995427;28;20041;-50
2022/01/23 10:52:35;;;;;;;19.77;5.03;;;;;;;25.20;31.42;95531.44;4951478;28;20098;-51
2022/01/23 10:55:36;;;;;;;27.27;7.00;;;;;;;25.28;31.76;95524.81;4982471;28;20034;-51
2022/01/23 10:58:06;;;;;;;31.15;6.82;;;;;;;25.15;31.75;95515.44;4981593;28;20096;-50
2022/01/23 11:00:37;;;;;;;33.38;8.13;;;;;;;25.18;31.68;95509.59;4958794;28;20062;-52
2022/01/23 11:03:16;;;;;;;29.85;7.10;;;;;;;25.18;32.05;95504.28;4949812;28;20166;-51
2022/01/23 11:05:42;;;;;;;30.08;7.20;;;;;;;25.18;32.10;95496.28;4970003;28;20046;-52
2022/01/23 11:08:30;;;;;;;30.80;7.68;;;;;;;25.20;32.27;95493.38;4979684;28;20105;-50
2022/01/23 11:11:08;;;;;;;31.90;7.18;;;;;;;25.18;32.15;95496.28;4955455;28;20125;-50
2022/01/23 11:19:39;;;;;;;26.38;6.65;;;;;;;25.17;32.46;95476.88;4982999;28;20052;-52
2022/01/23 11:22:11;;;;;;;35.08;6.80;;;;;;;25.25;32.74;95470.25;4981288;28;20038;-46
2022/01/23 11:24:42;;;;;;;27.05;6.43;;;;;;;25.22;32.76;95462.75;4948035;28;20034;-52
2022/01/23 11:27:16;;;;;;;25.17;6.35;;;;;;;25.22;32.98;95462.75;4963976;28;20064;-53
2022/01/23 11:29:55;;;;;;;35.97;7.10;;;;;;;25.31;33.02;95463.84;4977796;28;20038;-53
2022/01/23 11:32:29;;;;;;;28.15;7.05;;;;;;;25.30;32.80;95454.28;4979155;28;20045;-50
2022/01/23 11:35:05;;;;;;;27.02;6.47;;;;;;;25.30;32.76;95448.16;4986447;28;20061;-49
2022/01/23 11:37:48;;;;;;;29.67;6.55;;;;;;;25.39;33.02;95453.75;4976048;28;20084;-51
2022/01/23 11:40:42;;;;;;;31.02;7.10;;;;;;;25.40;32.81;95447.34;4965687;28;20042;-52
2022/01/23 11:54:52;;;;;;;22.50;5.95;;;;;;;25.46;31.85;95430.34;4982682;28;20040;-53
2022/01/23 11:57:41;;;;;;;23.70;6.18;;;;;;;25.46;32.14;95425.78;4999875;28;20055;-51
2022/01/23 12:00:40;;;;;;;27.77;5.95;;;;;;;25.52;32.33;95424.72;4972479;28;20124;-53
2022/01/23 12:03:19;;;;;;;23.80;6.28;;;;;;;25.46;32.51;95425.00;4910883;29;20151;-49
2022/01/23 12:05:47;;;;;;;21.65;6.05;;;;;;;25.44;32.43;95427.13;4895470;29;20051;-52
2022/01/23 12:08:21;;;;;;;27.05;6.18;;;;;;;25.44;32.57;95419.94;4902200;29;20114;-52
2022/01/23 12:11:17;;;;;;;40.90;7.50;;;;;;;25.53;32.27;95420.19;4908748;29;20046;-49
2022/01/23 12:16:27;;;;;;;23.65;6.13;;;;;;;25.49;31.86;95419.94;4908877;29;20040;-47
2022/01/23 12:19:26;;;;;;;27.27;6.22;;;;;;;25.64;31.50;95416.47;4894387;29;20051;-48
2022/01/23 12:21:53;;;;;;;37.05;6.65;;;;;;;25.54;31.22;95411.94;4852924;29;20101;-52
2022/01/23 12:24:19;;;;;;;37.75;7.28;;;;;;;25.56;31.51;95409.00;4855798;29;20159;-52
2022/01/23 12:27:27;;;;;;;32.30;5.93;;;;;;;25.75;31.04;95406.59;4871041;29;20172;-52
2022/01/23 12:29:55;;;;;;;27.40;6.70;;;;;;;25.55;31.46;95404.75;4817291;29;20038;-52
2022/01/23 12:32:34;;;;;;;25.27;6.13;;;;;;;25.56;31.78;95403.69;4801642;29;20055;-52
2022/01/23 12:35:10;;;;;;;22.85;5.65;;;;;;;25.59;31.62;95407.66;4821672;29;20042;-52
2022/01/23 12:38:00;;;;;;;32.58;5.72;;;;;;;25.64;31.57;95411.13;4811501;29;20077;-51
2022/01/23 12:40:28;;;;;;;;;;;;;;;26.13;30.45;95402.53;4871564;29;20051;-49
2022/01/23 12:43:24;;;;;;;27.80;5.50;;;;;;;25.77;31.28;95393.00;4870154;29;19966;-48
2022/01/23 12:46:10;;;;;;;21.63;5.60;;;;;;;25.72;31.17;95394.63;4887795;29;20116;-51
2022/01/23 12:48:39;;;;;;;26.75;6.47;;;;;;;25.72;31.16;95391.97;4871714;29;20053;-50
2022/01/23 12:51:22;;;;;;;33.92;6.18;;;;;;;25.77;31.20;95395.69;4873964;29;20048;-52
2022/01/23 12:53:47;;;;;;;25.70;5.70;;;;;;;25.75;31.48;95394.06;4868616;29;20045;-51
2022/01/23 12:56:20;;;;;;;27.73;5.82;;;;;;;25.72;31.16;95401.78;4862879;29;20043;-52
2022/01/23 12:59:09;;;;;;;23.10;5.63;;;;;;;25.79;31.27;95401.53;4913151;29;20051;-52
2022/01/23 13:01:44;;;;;;;27.55;5.82;;;;;;;25.72;31.19;95397.28;4977869;28;20046;-49
2022/01/23 13:04:10;;;;;;;17.35;5.15;;;;;;;25.74;30.93;95397.81;5018118;28;20042;-51
2022/01/23 13:06:41;;;;;;;20.00;4.75;;;;;;;25.80;30.35;95401.28;4991187;28;20040;-52
2022/01/23 13:17:39;;;;;;;20.17;5.03;;;;;;;25.87;30.40;95388.44;4957720;28;20073;-51
2022/01/23 13:30:01;;;;;;;16.00;4.68;;;;;;;26.21;30.09;95377.19;4979034;28;20052;-51
2022/01/23 13:35:34;;;;;;;15.30;4.47;;;;;;;26.12;30.60;95368.16;4933611;28;20214;-50
2022/01/23 13:38:02;;;;;;;21.90;4.80;;;;;;;26.14;30.24;95366.00;4933064;29;20043;-51
2022/01/23 13:40:38;;;;;;;17.58;4.47;;;;;;;26.12;30.34;95374.28;4952265;28;20062;-51
2022/01/23 13:50:02;;;;;;;15.30;4.40;;;;;;;26.21;30.44;95371.06;4928077;29;20074;-53
2022/01/23 13:52:10;;;;;;;17.88;4.40;;;;;;;26.27;30.81;95361.97;4887309;29;20075;-50
2022/01/23 13:57:38;;;;;;;14.20;4.25;;;;;;;26.31;30.85;95368.34;4888051;29;20060;-51
2022/01/23 14:00:14;;;;;;;15.57;4.22;;;;;;;26.25;30.91;95361.44;4888259;29;20084;-52
2022/01/23 14:02:53;;;;;;;15.50;4.47;;;;;;;26.34;30.68;95360.59;4888485;29;20072;-50
2022/01/23 14:05:27;;;;;;;13.82;4.32;;;;;;;26.35;30.64;95356.06;4890725;29;20067;-50
2022/01/23 14:07:54;;;;;;;16.23;4.50;;;;;;;26.38;30.42;95360.84;4905773;29;20123;-51
2022/01/23 14:10:41;;;;;;;14.70;4.40;;;;;;;26.41;30.50;95367.53;4900404;29;20049;-50
2022/01/23 14:13:14;;;;;;;16.70;4.60;;;;;;;26.45;30.42;95363.22;4869753;29;20049;-50
2022/01/23 14:16:00;;;;;;;15.85;4.60;;;;;;;26.49;30.88;95357.06;4904119;29;20052;-52
2022/01/23 14:18:39;;;;;;;13.77;4.72;;;;;;;26.47;30.42;95359.19;4906769;29;20044;-50
2022/01/23 14:21:11;;;;;;;14.23;4.55;;;;;;;26.46;30.87;95357.59;4904716;29;20071;-48
2022/01/23 14:23:41;;;;;;;15.85;4.00;;;;;;;26.47;30.71;95356.53;4907818;29;20071;-51
2022/01/23 14:26:08;;;;;;;;;;;;;;;27.02;29.83;95363.72;4942668;28;20046;-48
2022/01/23 14:28:39;;;;;;;11.65;4.45;;;;;;;26.64;30.56;95360.75;4960344;28;19929;-49
2022/01/23 14:31:23;;;;;;;13.18;4.07;;;;;;;26.56;31.07;95355.94;4947602;28;20039;-51
2022/01/23 14:33:52;;;;;;;12.40;3.88;;;;;;;26.57;30.37;95360.22;4957823;28;20059;-52
2022/01/23 14:36:28;;;;;;;13.75;4.32;;;;;;;26.56;30.77;95356.78;5018031;28;20042;-52
2022/01/23 14:39:04;;;;;;;17.35;4.43;;;;;;;26.58;31.01;95359.13;4984049;28;20039;-51
2022/01/23 14:41:44;;;;;;;13.57;4.00;;;;;;;26.58;30.77;95359.97;4978277;28;20054;-51
2022/01/23 14:44:25;;;;;;;19.25;4.38;;;;;;;26.65;30.41;95359.66;5034927;28;20045;-51
2022/01/23 14:46:56;;;;;;;14.95;4.10;;;;;;;26.59;30.93;95356.22;5003474;28;20042;-50
2022/01/23 14:49:24;;;;;;;11.48;3.92;;;;;;;26.51;30.81;95354.91;5003929;28;20037;-53
2022/01/23 14:52:04;;;;;;;13.75;4.63;;;;;;;26.55;30.05;95362.38;4999672;28;20167;-53
2022/01/23 14:54:31;;;;;;;;;;;;;;;27.05;28.41;95368.47;5006308;28;20048;-52
2022/01/23 14:57:01;;;;;;;9.38;4.03;;;;;;;26.67;27.40;95368.19;5004893;28;19917;-52
2022/01/23 14:59:28;;;;;;;;;;;;;;;27.14;26.45;95366.81;5006462;28;20038;-49
2022/01/23 15:01:54;;;;;;;6.93;3.53;;;;;;;26.75;26.92;95370.28;5006908;28;19918;-50
2022/01/23 15:04:20;;;;;;;12.15;3.40;;;;;;;26.66;26.87;95374.63;5006312;28;20077;-51
2022/01/23 15:06:52;;;;;;;12.07;3.70;;;;;;;26.59;27.60;95369.56;4991315;28;20033;-53
2022/01/23 15:09:27;;;;;;;8.10;3.17;;;;;;;26.57;27.67;95369.03;5009271;28;20074;-52
2022/01/23 15:11:53;;;;;;;6.78;2.80;;;;;;;26.56;27.65;95364.78;5010381;28;20091;-50
2022/01/23 15:14:20;;;;;;;9.55;3.42;;;;;;;26.57;27.96;95371.69;5009210;28;20035;-52
2022/01/23 15:16:48;;;;;;;9.25;3.20;;;;;;;26.57;27.93;95373.56;5021087;28;20062;-50
2022/01/23 15:19:14;;;;;;;8.05;3.00;;;;;;;26.52;28.03;95361.03;5012228;28;20129;-47
2022/01/23 15:21:48;;;;;;;9.65;3.28;;;;;;;26.49;27.79;95362.38;5015136;28;20041;-51
2022/01/23 15:24:14;;;;;;;9.15;3.08;;;;;;;26.51;27.95;95368.25;5012561;28;20033;-51
2022/01/23 15:26:42;;;;;;;8.30;3.00;;;;;;;26.51;28.26;95370.13;5019053;28;20087;-48
2022/01/23 15:29:12;;;;;;;7.28;2.92;;;;;;;26.48;28.11;95368.81;5015393;28;20042;-52